Terminal Aerodrome Forecast
Issued by NWS

Home | Current Version | Previous Version | Text Only | Print | Product List | Glossary On
Versions: 1 2 3 4 5 6 7 8 9 10 11 12 13 14 15 16 17
000
FTUS41 KPHI 152300
TAFMIV
TAF
KMIV 152329Z 1600/1624 VRB02KT P6SM BKN200
     FM160800 VRB02KT P6SM SCT060 BKN120
      TEMPO 1608/1612 -SHRA BKN060
     FM161500 34008KT P6SM SCT050=

USA.gov is the U.S. government's official web portal to all federal, state and local government web resources and services.